sensor_id;sensor_type;location;lat;lon;timestamp;P1;durP1;ratioP1;P2;durP2;ratioP2
21615;SDS011;10970;48.714;9.584;2023-02-11T00:01:26;49.15;;;25.58;;
21615;SDS011;10970;48.714;9.584;2023-02-11T00:03:53;37.80;;;23.70;;
21615;SDS011;10970;48.714;9.584;2023-02-11T00:06:18;43.70;;;25.40;;
21615;SDS011;10970;48.714;9.584;2023-02-11T00:08:44;41.40;;;25.50;;
21615;SDS011;10970;48.714;9.584;2023-02-11T00:11:14;48.10;;;24.57;;
21615;SDS011;10970;48.714;9.584;2023-02-11T00:13:44;38.88;;;25.50;;
21615;SDS011;10970;48.714;9.584;2023-02-11T00:16:12;41.30;;;25.40;;
21615;SDS011;10970;48.714;9.584;2023-02-11T00:18:39;42.28;;;24.90;;
21615;SDS011;10970;48.714;9.584;2023-02-11T00:21:08;39.40;;;22.27;;
21615;SDS011;10970;48.714;9.584;2023-02-11T00:23:36;48.05;;;26.90;;
21615;SDS011;10970;48.714;9.584;2023-02-11T00:26:01;50.90;;;26.77;;
21615;SDS011;10970;48.714;9.584;2023-02-11T00:28:28;56.92;;;27.92;;
21615;SDS011;10970;48.714;9.584;2023-02-11T00:30:57;50.42;;;29.95;;
21615;SDS011;10970;48.714;9.584;2023-02-11T00:33:22;48.92;;;27.90;;
21615;SDS011;10970;48.714;9.584;2023-02-11T00:35:49;48.73;;;25.00;;
21615;SDS011;10970;48.714;9.584;2023-02-11T00:38:14;46.45;;;24.17;;
21615;SDS011;10970;48.714;9.584;2023-02-11T00:40:40;43.58;;;24.30;;
21615;SDS011;10970;48.714;9.584;2023-02-11T00:43:06;46.90;;;24.07;;
21615;SDS011;10970;48.714;9.584;2023-02-11T00:45:32;52.83;;;25.10;;
21615;SDS011;10970;48.714;9.584;2023-02-11T00:47:57;37.13;;;21.30;;
21615;SDS011;10970;48.714;9.584;2023-02-11T00:50:23;44.83;;;25.73;;
21615;SDS011;10970;48.714;9.584;2023-02-11T00:52:49;36.63;;;23.05;;
21615;SDS011;10970;48.714;9.584;2023-02-11T00:55:15;38.33;;;24.30;;
21615;SDS011;10970;48.714;9.584;2023-02-11T00:57:41;41.20;;;27.13;;
21615;SDS011;10970;48.714;9.584;2023-02-11T01:00:08;39.77;;;24.20;;
21615;SDS011;10970;48.714;9.584;2023-02-11T01:02:35;41.92;;;25.05;;
21615;SDS011;10970;48.714;9.584;2023-02-11T01:05:01;33.23;;;20.30;;
21615;SDS011;10970;48.714;9.584;2023-02-11T01:07:27;50.00;;;24.00;;
21615;SDS011;10970;48.714;9.584;2023-02-11T01:09:52;39.95;;;23.02;;
21615;SDS011;10970;48.714;9.584;2023-02-11T01:12:18;46.70;;;22.23;;
21615;SDS011;10970;48.714;9.584;2023-02-11T01:14:44;35.63;;;22.07;;
21615;SDS011;10970;48.714;9.584;2023-02-11T01:17:10;41.97;;;22.50;;
21615;SDS011;10970;48.714;9.584;2023-02-11T01:19:36;33.83;;;23.10;;
21615;SDS011;10970;48.714;9.584;2023-02-11T01:22:02;41.35;;;21.52;;
21615;SDS011;10970;48.714;9.584;2023-02-11T01:24:29;36.25;;;21.15;;
21615;SDS011;10970;48.714;9.584;2023-02-11T01:26:54;31.87;;;21.67;;
21615;SDS011;10970;48.714;9.584;2023-02-11T01:29:20;42.87;;;24.97;;
21615;SDS011;10970;48.714;9.584;2023-02-11T01:31:46;36.63;;;22.13;;
21615;SDS011;10970;48.714;9.584;2023-02-11T01:34:11;33.80;;;21.30;;
21615;SDS011;10970;48.714;9.584;2023-02-11T01:36:37;42.23;;;21.50;;
21615;SDS011;10970;48.714;9.584;2023-02-11T01:39:03;35.30;;;20.57;;
21615;SDS011;10970;48.714;9.584;2023-02-11T01:41:29;37.57;;;21.87;;
21615;SDS011;10970;48.714;9.584;2023-02-11T01:43:54;34.93;;;20.60;;
21615;SDS011;10970;48.714;9.584;2023-02-11T01:46:36;36.83;;;21.97;;
21615;SDS011;10970;48.714;9.584;2023-02-11T01:49:04;33.30;;;21.95;;
21615;SDS011;10970;48.714;9.584;2023-02-11T01:51:39;33.83;;;19.25;;
21615;SDS011;10970;48.714;9.584;2023-02-11T01:54:12;34.83;;;22.65;;
21615;SDS011;10970;48.714;9.584;2023-02-11T01:56:59;36.78;;;20.52;;
21615;SDS011;10970;48.714;9.584;2023-02-11T02:05:20;39.10;;;21.50;;
21615;SDS011;10970;48.714;9.584;2023-02-11T02:08:02;36.78;;;20.60;;
21615;SDS011;10970;48.714;9.584;2023-02-11T02:10:49;31.83;;;19.98;;
21615;SDS011;10970;48.714;9.584;2023-02-11T02:13:20;34.60;;;20.45;;
21615;SDS011;10970;48.714;9.584;2023-02-11T02:15:50;35.63;;;19.83;;
21615;SDS011;10970;48.714;9.584;2023-02-11T02:21:18;45.45;;;19.98;;
21615;SDS011;10970;48.714;9.584;2023-02-11T02:36:23;39.22;;;22.80;;
21615;SDS011;10970;48.714;9.584;2023-02-11T02:41:07;34.20;;;20.50;;
21615;SDS011;10970;48.714;9.584;2023-02-11T02:43:37;40.92;;;22.17;;
21615;SDS011;10970;48.714;9.584;2023-02-11T02:46:20;34.10;;;20.58;;
21615;SDS011;10970;48.714;9.584;2023-02-11T02:48:49;33.67;;;20.98;;
21615;SDS011;10970;48.714;9.584;2023-02-11T02:51:35;34.33;;;20.88;;
21615;SDS011;10970;48.714;9.584;2023-02-11T03:05:38;45.60;;;22.95;;
21615;SDS011;10970;48.714;9.584;2023-02-11T03:08:15;36.45;;;21.65;;
21615;SDS011;10970;48.714;9.584;2023-02-11T03:10:59;38.85;;;21.90;;
21615;SDS011;10970;48.714;9.584;2023-02-11T03:13:27;38.38;;;21.40;;
21615;SDS011;10970;48.714;9.584;2023-02-11T03:15:58;37.08;;;23.52;;
21615;SDS011;10970;48.714;9.584;2023-02-11T03:18:29;37.53;;;20.15;;
21615;SDS011;10970;48.714;9.584;2023-02-11T03:20:57;39.03;;;22.05;;
21615;SDS011;10970;48.714;9.584;2023-02-11T03:23:29;47.83;;;24.77;;
21615;SDS011;10970;48.714;9.584;2023-02-11T03:26:05;33.47;;;20.67;;
21615;SDS011;10970;48.714;9.584;2023-02-11T03:28:42;33.50;;;18.85;;
21615;SDS011;10970;48.714;9.584;2023-02-11T03:33:38;34.90;;;20.00;;
21615;SDS011;10970;48.714;9.584;2023-02-11T03:36:16;32.03;;;19.70;;
21615;SDS011;10970;48.714;9.584;2023-02-11T03:38:47;37.78;;;21.80;;
21615;SDS011;10970;48.714;9.584;2023-02-11T03:41:19;36.00;;;21.33;;
21615;SDS011;10970;48.714;9.584;2023-02-11T03:43:51;39.08;;;21.38;;
21615;SDS011;10970;48.714;9.584;2023-02-11T03:46:20;33.97;;;18.58;;
21615;SDS011;10970;48.714;9.584;2023-02-11T03:49:03;34.60;;;21.67;;
21615;SDS011;10970;48.714;9.584;2023-02-11T03:51:33;36.63;;;20.50;;
21615;SDS011;10970;48.714;9.584;2023-02-11T03:54:01;36.05;;;21.65;;
21615;SDS011;10970;48.714;9.584;2023-02-11T03:56:31;33.65;;;20.08;;
21615;SDS011;10970;48.714;9.584;2023-02-11T03:59:00;35.10;;;20.77;;
21615;SDS011;10970;48.714;9.584;2023-02-11T04:01:26;33.43;;;20.73;;
21615;SDS011;10970;48.714;9.584;2023-02-11T04:03:51;36.70;;;21.90;;
21615;SDS011;10970;48.714;9.584;2023-02-11T04:06:17;35.70;;;20.40;;
21615;SDS011;10970;48.714;9.584;2023-02-11T04:08:43;30.30;;;19.60;;
21615;SDS011;10970;48.714;9.584;2023-02-11T04:11:08;33.70;;;21.47;;
21615;SDS011;10970;48.714;9.584;2023-02-11T04:13:34;35.53;;;20.57;;
21615;SDS011;10970;48.714;9.584;2023-02-11T04:15:59;35.00;;;20.07;;
21615;SDS011;10970;48.714;9.584;2023-02-11T04:18:25;32.50;;;20.33;;
21615;SDS011;10970;48.714;9.584;2023-02-11T04:20:51;35.90;;;20.00;;
21615;SDS011;10970;48.714;9.584;2023-02-11T04:23:16;32.77;;;19.97;;
21615;SDS011;10970;48.714;9.584;2023-02-11T04:25:42;32.90;;;18.40;;
21615;SDS011;10970;48.714;9.584;2023-02-11T04:28:08;40.20;;;23.80;;
21615;SDS011;10970;48.714;9.584;2023-02-11T04:30:33;35.40;;;21.00;;
21615;SDS011;10970;48.714;9.584;2023-02-11T04:32:59;36.33;;;20.50;;
21615;SDS011;10970;48.714;9.584;2023-02-11T04:35:24;37.37;;;22.60;;
21615;SDS011;10970;48.714;9.584;2023-02-11T04:37:50;39.03;;;20.87;;
21615;SDS011;10970;48.714;9.584;2023-02-11T04:40:16;44.47;;;19.57;;
21615;SDS011;10970;48.714;9.584;2023-02-11T04:42:41;36.23;;;18.77;;
21615;SDS011;10970;48.714;9.584;2023-02-11T04:45:07;37.37;;;19.97;;
21615;SDS011;10970;48.714;9.584;2023-02-11T04:47:33;33.07;;;19.40;;
21615;SDS011;10970;48.714;9.584;2023-02-11T04:49:58;36.40;;;21.40;;
21615;SDS011;10970;48.714;9.584;2023-02-11T04:52:24;34.80;;;20.60;;
21615;SDS011;10970;48.714;9.584;2023-02-11T04:54:50;27.60;;;17.60;;
21615;SDS011;10970;48.714;9.584;2023-02-11T04:57:15;32.87;;;19.67;;
21615;SDS011;10970;48.714;9.584;2023-02-11T04:59:41;35.10;;;18.70;;
21615;SDS011;10970;48.714;9.584;2023-02-11T05:02:06;36.13;;;20.43;;
21615;SDS011;10970;48.714;9.584;2023-02-11T05:04:32;24.87;;;16.70;;
21615;SDS011;10970;48.714;9.584;2023-02-11T05:06:58;31.90;;;18.90;;
21615;SDS011;10970;48.714;9.584;2023-02-11T05:09:23;31.10;;;17.77;;
21615;SDS011;10970;48.714;9.584;2023-02-11T05:11:49;45.83;;;16.97;;
21615;SDS011;10970;48.714;9.584;2023-02-11T05:14:15;35.20;;;19.50;;
21615;SDS011;10970;48.714;9.584;2023-02-11T05:16:40;37.60;;;20.73;;
21615;SDS011;10970;48.714;9.584;2023-02-11T05:19:06;34.20;;;20.80;;
21615;SDS011;10970;48.714;9.584;2023-02-11T05:21:31;42.87;;;19.60;;
21615;SDS011;10970;48.714;9.584;2023-02-11T05:23:57;46.10;;;21.43;;
21615;SDS011;10970;48.714;9.584;2023-02-11T05:26:23;31.40;;;19.67;;
21615;SDS011;10970;48.714;9.584;2023-02-11T05:28:49;39.35;;;22.00;;
21615;SDS011;10970;48.714;9.584;2023-02-11T05:31:14;42.43;;;21.63;;
21615;SDS011;10970;48.714;9.584;2023-02-11T05:33:41;33.37;;;20.17;;
21615;SDS011;10970;48.714;9.584;2023-02-11T05:36:08;37.63;;;21.10;;
21615;SDS011;10970;48.714;9.584;2023-02-11T05:38:35;31.80;;;21.13;;
21615;SDS011;10970;48.714;9.584;2023-02-11T05:41:02;41.60;;;21.83;;
21615;SDS011;10970;48.714;9.584;2023-02-11T05:43:29;35.83;;;19.38;;
21615;SDS011;10970;48.714;9.584;2023-02-11T05:45:54;32.63;;;20.13;;
21615;SDS011;10970;48.714;9.584;2023-02-11T05:48:21;29.73;;;20.60;;
21615;SDS011;10970;48.714;9.584;2023-02-11T05:50:46;34.73;;;20.17;;
21615;SDS011;10970;48.714;9.584;2023-02-11T05:53:12;38.17;;;21.87;;
21615;SDS011;10970;48.714;9.584;2023-02-11T05:55:38;33.03;;;19.43;;
21615;SDS011;10970;48.714;9.584;2023-02-11T05:58:04;28.60;;;18.80;;
21615;SDS011;10970;48.714;9.584;2023-02-11T06:00:30;36.97;;;20.45;;
21615;SDS011;10970;48.714;9.584;2023-02-11T06:02:55;34.93;;;21.83;;
21615;SDS011;10970;48.714;9.584;2023-02-11T06:05:21;38.23;;;24.43;;
21615;SDS011;10970;48.714;9.584;2023-02-11T06:07:47;37.20;;;22.03;;
21615;SDS011;10970;48.714;9.584;2023-02-11T06:10:12;36.60;;;20.10;;
21615;SDS011;10970;48.714;9.584;2023-02-11T06:12:38;41.20;;;22.17;;
21615;SDS011;10970;48.714;9.584;2023-02-11T06:15:04;42.90;;;21.47;;
21615;SDS011;10970;48.714;9.584;2023-02-11T06:17:30;35.85;;;22.90;;
21615;SDS011;10970;48.714;9.584;2023-02-11T06:19:57;41.08;;;19.98;;
21615;SDS011;10970;48.714;9.584;2023-02-11T06:22:24;34.92;;;19.92;;
21615;SDS011;10970;48.714;9.584;2023-02-11T06:24:50;38.78;;;21.38;;
21615;SDS011;10970;48.714;9.584;2023-02-11T06:27:16;38.53;;;21.30;;
21615;SDS011;10970;48.714;9.584;2023-02-11T06:29:42;29.48;;;18.38;;
21615;SDS011;10970;48.714;9.584;2023-02-11T06:32:09;30.20;;;20.95;;
21615;SDS011;10970;48.714;9.584;2023-02-11T06:34:34;28.33;;;18.77;;
21615;SDS011;10970;48.714;9.584;2023-02-11T06:37:00;31.13;;;20.93;;
21615;SDS011;10970;48.714;9.584;2023-02-11T06:39:26;35.13;;;21.07;;
21615;SDS011;10970;48.714;9.584;2023-02-11T06:41:51;27.17;;;18.50;;
21615;SDS011;10970;48.714;9.584;2023-02-11T06:44:17;34.50;;;19.87;;
21615;SDS011;10970;48.714;9.584;2023-02-11T06:46:43;34.70;;;21.67;;
21615;SDS011;10970;48.714;9.584;2023-02-11T06:49:08;39.43;;;19.10;;
21615;SDS011;10970;48.714;9.584;2023-02-11T06:51:34;37.67;;;21.20;;
21615;SDS011;10970;48.714;9.584;2023-02-11T06:54:00;35.10;;;20.60;;
21615;SDS011;10970;48.714;9.584;2023-02-11T06:56:25;36.23;;;19.87;;
21615;SDS011;10970;48.714;9.584;2023-02-11T06:58:52;32.13;;;18.50;;
21615;SDS011;10970;48.714;9.584;2023-02-11T07:01:22;35.22;;;20.50;;
21615;SDS011;10970;48.714;9.584;2023-02-11T07:03:49;27.75;;;18.85;;
21615;SDS011;10970;48.714;9.584;2023-02-11T07:06:18;32.83;;;21.02;;
21615;SDS011;10970;48.714;9.584;2023-02-11T07:08:46;33.80;;;19.80;;
21615;SDS011;10970;48.714;9.584;2023-02-11T07:13:40;36.28;;;19.40;;
21615;SDS011;10970;48.714;9.584;2023-02-11T07:16:07;49.03;;;20.63;;
21615;SDS011;10970;48.714;9.584;2023-02-11T07:18:35;30.95;;;19.10;;
21615;SDS011;10970;48.714;9.584;2023-02-11T07:21:07;36.63;;;20.13;;
21615;SDS011;10970;48.714;9.584;2023-02-11T07:23:34;32.38;;;20.48;;
21615;SDS011;10970;48.714;9.584;2023-02-11T07:26:01;32.05;;;20.65;;
21615;SDS011;10970;48.714;9.584;2023-02-11T07:28:28;31.05;;;20.50;;
21615;SDS011;10970;48.714;9.584;2023-02-11T07:30:53;30.90;;;18.93;;
21615;SDS011;10970;48.714;9.584;2023-02-11T07:33:19;37.23;;;21.13;;
21615;SDS011;10970;48.714;9.584;2023-02-11T07:35:45;34.30;;;21.80;;
21615;SDS011;10970;48.714;9.584;2023-02-11T07:38:10;31.53;;;19.90;;
21615;SDS011;10970;48.714;9.584;2023-02-11T07:40:36;34.50;;;21.80;;
21615;SDS011;10970;48.714;9.584;2023-02-11T07:43:02;32.00;;;20.57;;
21615;SDS011;10970;48.714;9.584;2023-02-11T07:45:27;35.57;;;21.63;;
21615;SDS011;10970;48.714;9.584;2023-02-11T07:47:53;33.13;;;20.03;;
21615;SDS011;10970;48.714;9.584;2023-02-11T07:50:18;41.57;;;23.97;;
21615;SDS011;10970;48.714;9.584;2023-02-11T07:52:44;35.57;;;22.47;;
21615;SDS011;10970;48.714;9.584;2023-02-11T07:55:10;36.63;;;22.70;;
21615;SDS011;10970;48.714;9.584;2023-02-11T07:57:35;46.90;;;25.70;;
21615;SDS011;10970;48.714;9.584;2023-02-11T08:00:02;29.67;;;19.63;;
21615;SDS011;10970;48.714;9.584;2023-02-11T08:02:28;33.80;;;20.45;;
21615;SDS011;10970;48.714;9.584;2023-02-11T08:04:54;32.23;;;21.07;;
21615;SDS011;10970;48.714;9.584;2023-02-11T08:07:20;36.17;;;22.00;;
21615;SDS011;10970;48.714;9.584;2023-02-11T08:09:46;31.47;;;21.43;;
21615;SDS011;10970;48.714;9.584;2023-02-11T08:12:12;33.90;;;21.33;;
21615;SDS011;10970;48.714;9.584;2023-02-11T08:14:37;28.33;;;19.70;;
21615;SDS011;10970;48.714;9.584;2023-02-11T08:17:03;29.50;;;19.93;;
21615;SDS011;10970;48.714;9.584;2023-02-11T08:19:29;32.67;;;19.58;;
21615;SDS011;10970;48.714;9.584;2023-02-11T08:21:55;32.83;;;20.20;;
21615;SDS011;10970;48.714;9.584;2023-02-11T08:24:21;36.28;;;21.90;;
21615;SDS011;10970;48.714;9.584;2023-02-11T08:26:47;36.58;;;21.80;;
21615;SDS011;10970;48.714;9.584;2023-02-11T08:29:14;34.50;;;19.47;;
21615;SDS011;10970;48.714;9.584;2023-02-11T08:31:41;41.42;;;22.58;;
21615;SDS011;10970;48.714;9.584;2023-02-11T08:34:09;36.05;;;21.10;;
21615;SDS011;10970;48.714;9.584;2023-02-11T08:36:38;31.70;;;20.08;;
21615;SDS011;10970;48.714;9.584;2023-02-11T08:39:06;31.55;;;19.63;;
21615;SDS011;10970;48.714;9.584;2023-02-11T08:41:36;30.92;;;20.63;;
21615;SDS011;10970;48.714;9.584;2023-02-11T08:44:02;29.27;;;19.47;;
21615;SDS011;10970;48.714;9.584;2023-02-11T08:46:28;31.48;;;21.08;;
21615;SDS011;10970;48.714;9.584;2023-02-11T08:48:54;29.40;;;19.90;;
21615;SDS011;10970;48.714;9.584;2023-02-11T08:51:20;32.40;;;23.00;;
21615;SDS011;10970;48.714;9.584;2023-02-11T08:53:48;36.08;;;19.80;;
21615;SDS011;10970;48.714;9.584;2023-02-11T08:56:15;35.38;;;21.55;;
21615;SDS011;10970;48.714;9.584;2023-02-11T08:58:43;40.05;;;19.67;;
21615;SDS011;10970;48.714;9.584;2023-02-11T09:01:12;30.60;;;19.03;;
21615;SDS011;10970;48.714;9.584;2023-02-11T09:03:47;32.15;;;18.42;;
21615;SDS011;10970;48.714;9.584;2023-02-11T09:06:13;31.33;;;18.90;;
21615;SDS011;10970;48.714;9.584;2023-02-11T09:08:41;29.60;;;19.50;;
21615;SDS011;10970;48.714;9.584;2023-02-11T09:11:08;32.30;;;21.27;;
21615;SDS011;10970;48.714;9.584;2023-02-11T09:13:35;34.58;;;20.30;;
21615;SDS011;10970;48.714;9.584;2023-02-11T09:16:01;32.47;;;21.10;;
21615;SDS011;10970;48.714;9.584;2023-02-11T09:18:28;32.08;;;20.75;;
21615;SDS011;10970;48.714;9.584;2023-02-11T09:21:01;33.35;;;21.77;;
21615;SDS011;10970;48.714;9.584;2023-02-11T09:23:28;29.60;;;19.98;;
21615;SDS011;10970;48.714;9.584;2023-02-11T09:25:54;30.20;;;20.03;;
21615;SDS011;10970;48.714;9.584;2023-02-11T09:28:19;38.93;;;21.27;;
21615;SDS011;10970;48.714;9.584;2023-02-11T09:30:45;36.10;;;20.33;;
21615;SDS011;10970;48.714;9.584;2023-02-11T09:33:11;25.97;;;18.20;;
21615;SDS011;10970;48.714;9.584;2023-02-11T09:35:37;31.40;;;20.23;;
21615;SDS011;10970;48.714;9.584;2023-02-11T09:38:02;24.60;;;19.07;;
21615;SDS011;10970;48.714;9.584;2023-02-11T09:40:28;32.53;;;20.70;;
21615;SDS011;10970;48.714;9.584;2023-02-11T09:43:04;31.60;;;20.07;;
21615;SDS011;10970;48.714;9.584;2023-02-11T09:45:35;32.33;;;19.40;;
21615;SDS011;10970;48.714;9.584;2023-02-11T09:48:09;26.10;;;18.50;;
21615;SDS011;10970;48.714;9.584;2023-02-11T09:50:48;36.65;;;22.55;;
21615;SDS011;10970;48.714;9.584;2023-02-11T09:53:27;29.35;;;18.73;;
21615;SDS011;10970;48.714;9.584;2023-02-11T09:55:56;31.85;;;22.08;;
21615;SDS011;10970;48.714;9.584;2023-02-11T09:58:26;30.85;;;19.77;;
21615;SDS011;10970;48.714;9.584;2023-02-11T10:03:42;25.67;;;18.60;;
21615;SDS011;10970;48.714;9.584;2023-02-11T10:08:53;25.33;;;18.30;;
21615;SDS011;10970;48.714;9.584;2023-02-11T10:17:34;30.63;;;18.88;;
21615;SDS011;10970;48.714;9.584;2023-02-11T10:22:47;26.40;;;17.10;;
21615;SDS011;10970;48.714;9.584;2023-02-11T10:27:47;29.38;;;16.80;;
21615;SDS011;10970;48.714;9.584;2023-02-11T10:30:22;28.58;;;17.27;;
21615;SDS011;10970;48.714;9.584;2023-02-11T10:33:02;28.02;;;16.58;;
21615;SDS011;10970;48.714;9.584;2023-02-11T10:35:39;28.42;;;17.98;;
21615;SDS011;10970;48.714;9.584;2023-02-11T10:38:07;24.50;;;17.38;;
21615;SDS011;10970;48.714;9.584;2023-02-11T10:40:34;23.30;;;16.50;;
21615;SDS011;10970;48.714;9.584;2023-02-11T10:43:02;30.57;;;16.87;;
21615;SDS011;10970;48.714;9.584;2023-02-11T10:45:41;22.27;;;16.20;;
21615;SDS011;10970;48.714;9.584;2023-02-11T10:48:56;27.30;;;17.92;;
21615;SDS011;10970;48.714;9.584;2023-02-11T10:51:14;23.15;;;16.65;;
21615;SDS011;10970;48.714;9.584;2023-02-11T10:54:08;25.35;;;15.77;;
21615;SDS011;10970;48.714;9.584;2023-02-11T10:56:46;27.45;;;16.02;;
21615;SDS011;10970;48.714;9.584;2023-02-11T10:59:27;24.63;;;17.77;;
21615;SDS011;10970;48.714;9.584;2023-02-11T11:01:55;22.38;;;14.88;;
21615;SDS011;10970;48.714;9.584;2023-02-11T11:10:24;20.00;;;14.98;;
21615;SDS011;10970;48.714;9.584;2023-02-11T11:13:29;22.15;;;15.70;;
21615;SDS011;10970;48.714;9.584;2023-02-11T11:16:07;23.08;;;16.35;;
21615;SDS011;10970;48.714;9.584;2023-02-11T11:18:36;28.83;;;14.20;;
21615;SDS011;10970;48.714;9.584;2023-02-11T11:21:03;20.25;;;16.02;;
21615;SDS011;10970;48.714;9.584;2023-02-11T11:23:32;22.88;;;15.38;;
21615;SDS011;10970;48.714;9.584;2023-02-11T11:26:05;22.17;;;14.65;;
21615;SDS011;10970;48.714;9.584;2023-02-11T11:28:51;17.92;;;14.75;;
21615;SDS011;10970;48.714;9.584;2023-02-11T11:31:21;24.33;;;17.20;;
21615;SDS011;10970;48.714;9.584;2023-02-11T11:33:53;21.17;;;15.45;;
21615;SDS011;10970;48.714;9.584;2023-02-11T11:36:21;19.10;;;13.98;;
21615;SDS011;10970;48.714;9.584;2023-02-11T11:38:56;17.60;;;14.07;;
21615;SDS011;10970;48.714;9.584;2023-02-11T11:41:32;26.85;;;16.33;;
21615;SDS011;10970;48.714;9.584;2023-02-11T11:46:37;24.07;;;15.30;;
21615;SDS011;10970;48.714;9.584;2023-02-11T11:49:11;25.15;;;15.02;;
21615;SDS011;10970;48.714;9.584;2023-02-11T11:51:38;22.92;;;14.98;;
21615;SDS011;10970;48.714;9.584;2023-02-11T11:54:12;25.15;;;16.25;;
21615;SDS011;10970;48.714;9.584;2023-02-11T11:56:46;22.48;;;15.95;;
21615;SDS011;10970;48.714;9.584;2023-02-11T11:59:17;19.00;;;14.02;;
21615;SDS011;10970;48.714;9.584;2023-02-11T12:21:04;15.82;;;11.98;;
21615;SDS011;10970;48.714;9.584;2023-02-11T12:23:37;28.95;;;13.40;;
21615;SDS011;10970;48.714;9.584;2023-02-11T12:26:21;15.52;;;11.60;;
21615;SDS011;10970;48.714;9.584;2023-02-11T12:54:32;12.63;;;8.05;;
21615;SDS011;10970;48.714;9.584;2023-02-11T12:57:10;11.73;;;7.85;;
21615;SDS011;10970;48.714;9.584;2023-02-11T13:05:21;9.77;;;8.75;;
21615;SDS011;10970;48.714;9.584;2023-02-11T13:08:03;15.32;;;9.82;;
21615;SDS011;10970;48.714;9.584;2023-02-11T13:10:54;12.23;;;8.18;;
21615;SDS011;10970;48.714;9.584;2023-02-11T13:13:30;14.77;;;8.35;;
21615;SDS011;10970;48.714;9.584;2023-02-11T13:21:46;13.07;;;9.23;;
21615;SDS011;10970;48.714;9.584;2023-02-11T13:24:41;9.32;;;8.00;;
21615;SDS011;10970;48.714;9.584;2023-02-11T13:29:43;13.87;;;7.80;;
21615;SDS011;10970;48.714;9.584;2023-02-11T13:32:20;9.38;;;7.85;;
21615;SDS011;10970;48.714;9.584;2023-02-11T13:34:52;12.37;;;8.27;;
21615;SDS011;10970;48.714;9.584;2023-02-11T13:42:26;8.95;;;7.00;;
21615;SDS011;10970;48.714;9.584;2023-02-11T13:44:53;8.75;;;6.80;;
21615;SDS011;10970;48.714;9.584;2023-02-11T13:47:28;8.30;;;6.35;;
21615;SDS011;10970;48.714;9.584;2023-02-11T13:49:59;10.95;;;7.63;;
21615;SDS011;10970;48.714;9.584;2023-02-11T13:52:33;11.02;;;6.93;;
21615;SDS011;10970;48.714;9.584;2023-02-11T13:55:22;11.38;;;8.13;;
21615;SDS011;10970;48.714;9.584;2023-02-11T14:03:41;8.53;;;6.10;;
21615;SDS011;10970;48.714;9.584;2023-02-11T14:19:55;9.45;;;6.43;;
21615;SDS011;10970;48.714;9.584;2023-02-11T14:22:16;12.40;;;7.97;;
21615;SDS011;10970;48.714;9.584;2023-02-11T14:30:19;8.45;;;6.95;;
21615;SDS011;10970;48.714;9.584;2023-02-11T14:36:01;13.30;;;8.85;;
21615;SDS011;10970;48.714;9.584;2023-02-11T14:41:26;15.27;;;9.15;;
21615;SDS011;10970;48.714;9.584;2023-02-11T14:43:56;11.65;;;9.00;;
21615;SDS011;10970;48.714;9.584;2023-02-11T14:46:25;11.98;;;8.45;;
21615;SDS011;10970;48.714;9.584;2023-02-11T14:48:54;8.15;;;6.90;;
21615;SDS011;10970;48.714;9.584;2023-02-11T14:53:56;9.00;;;7.85;;
21615;SDS011;10970;48.714;9.584;2023-02-11T14:56:27;11.68;;;7.50;;
21615;SDS011;10970;48.714;9.584;2023-02-11T14:58:58;9.38;;;7.07;;
21615;SDS011;10970;48.714;9.584;2023-02-11T15:01:30;12.32;;;8.50;;
21615;SDS011;10970;48.714;9.584;2023-02-11T15:04:00;9.70;;;7.72;;
21615;SDS011;10970;48.714;9.584;2023-02-11T15:06:37;10.15;;;9.05;;
21615;SDS011;10970;48.714;9.584;2023-02-11T15:11:31;8.93;;;8.00;;
21615;SDS011;10970;48.714;9.584;2023-02-11T15:16:51;12.30;;;8.88;;
21615;SDS011;10970;48.714;9.584;2023-02-11T15:19:23;13.65;;;9.77;;
21615;SDS011;10970;48.714;9.584;2023-02-11T15:21:54;14.88;;;9.95;;
21615;SDS011;10970;48.714;9.584;2023-02-11T15:24:30;11.23;;;8.60;;
21615;SDS011;10970;48.714;9.584;2023-02-11T15:27:03;11.02;;;8.88;;
21615;SDS011;10970;48.714;9.584;2023-02-11T15:29:42;13.02;;;10.10;;
21615;SDS011;10970;48.714;9.584;2023-02-11T15:32:12;20.55;;;11.10;;
21615;SDS011;10970;48.714;9.584;2023-02-11T15:34:39;14.65;;;8.88;;
21615;SDS011;10970;48.714;9.584;2023-02-11T15:37:05;13.88;;;9.45;;
21615;SDS011;10970;48.714;9.584;2023-02-11T15:39:33;20.17;;;11.90;;
21615;SDS011;10970;48.714;9.584;2023-02-11T15:42:15;13.82;;;9.55;;
21615;SDS011;10970;48.714;9.584;2023-02-11T15:44:45;12.00;;;9.02;;
21615;SDS011;10970;48.714;9.584;2023-02-11T15:47:12;13.13;;;9.77;;
21615;SDS011;10970;48.714;9.584;2023-02-11T15:49:45;10.25;;;9.02;;
21615;SDS011;10970;48.714;9.584;2023-02-11T15:52:12;14.90;;;10.13;;
21615;SDS011;10970;48.714;9.584;2023-02-11T15:54:47;17.38;;;10.73;;
21615;SDS011;10970;48.714;9.584;2023-02-11T15:57:13;14.85;;;10.05;;
21615;SDS011;10970;48.714;9.584;2023-02-11T15:59:44;16.98;;;10.55;;
21615;SDS011;10970;48.714;9.584;2023-02-11T16:02:25;23.33;;;10.18;;
21615;SDS011;10970;48.714;9.584;2023-02-11T16:04:58;14.98;;;10.77;;
21615;SDS011;10970;48.714;9.584;2023-02-11T16:07:46;12.80;;;9.40;;
21615;SDS011;10970;48.714;9.584;2023-02-11T16:10:30;13.30;;;10.25;;
21615;SDS011;10970;48.714;9.584;2023-02-11T16:15:40;16.88;;;10.73;;
21615;SDS011;10970;48.714;9.584;2023-02-11T16:21:01;14.23;;;9.45;;
21615;SDS011;10970;48.714;9.584;2023-02-11T16:23:30;15.63;;;11.07;;
21615;SDS011;10970;48.714;9.584;2023-02-11T16:26:01;16.83;;;9.82;;
21615;SDS011;10970;48.714;9.584;2023-02-11T16:28:31;15.32;;;9.90;;
21615;SDS011;10970;48.714;9.584;2023-02-11T16:30:57;11.60;;;9.10;;
21615;SDS011;10970;48.714;9.584;2023-02-11T16:33:23;11.35;;;9.77;;
21615;SDS011;10970;48.714;9.584;2023-02-11T16:35:49;19.23;;;13.60;;
21615;SDS011;10970;48.714;9.584;2023-02-11T16:38:15;23.87;;;14.63;;
21615;SDS011;10970;48.714;9.584;2023-02-11T16:40:41;13.77;;;10.82;;
21615;SDS011;10970;48.714;9.584;2023-02-11T16:43:10;16.75;;;12.23;;
21615;SDS011;10970;48.714;9.584;2023-02-11T16:45:36;13.57;;;10.63;;
21615;SDS011;10970;48.714;9.584;2023-02-11T16:48:05;14.30;;;11.23;;
21615;SDS011;10970;48.714;9.584;2023-02-11T16:50:32;17.30;;;12.20;;
21615;SDS011;10970;48.714;9.584;2023-02-11T16:52:59;17.23;;;10.55;;
21615;SDS011;10970;48.714;9.584;2023-02-11T16:55:30;17.23;;;11.77;;
21615;SDS011;10970;48.714;9.584;2023-02-11T16:57:56;15.48;;;12.00;;
21615;SDS011;10970;48.714;9.584;2023-02-11T17:00:22;16.53;;;12.40;;
21615;SDS011;10970;48.714;9.584;2023-02-11T17:02:48;13.57;;;11.00;;
21615;SDS011;10970;48.714;9.584;2023-02-11T17:05:17;15.50;;;10.97;;
21615;SDS011;10970;48.714;9.584;2023-02-11T17:07:44;19.20;;;12.32;;
21615;SDS011;10970;48.714;9.584;2023-02-11T17:10:18;15.10;;;10.90;;
21615;SDS011;10970;48.714;9.584;2023-02-11T17:12:47;13.88;;;10.70;;
21615;SDS011;10970;48.714;9.584;2023-02-11T17:15:13;17.40;;;12.30;;
21615;SDS011;10970;48.714;9.584;2023-02-11T17:17:39;16.70;;;12.47;;
21615;SDS011;10970;48.714;9.584;2023-02-11T17:20:05;16.27;;;12.50;;
21615;SDS011;10970;48.714;9.584;2023-02-11T17:22:32;16.38;;;11.30;;
21615;SDS011;10970;48.714;9.584;2023-02-11T17:24:58;17.23;;;12.63;;
21615;SDS011;10970;48.714;9.584;2023-02-11T17:27:23;17.07;;;13.30;;
21615;SDS011;10970;48.714;9.584;2023-02-11T17:29:49;20.10;;;13.00;;